sensor_id;sensor_type;location;lat;lon;timestamp;temperature;humidity
52575;DHT22;38468;48.114;-1.684;2023-04-07T00:00:19;9.40;75.60
52575;DHT22;38468;48.114;-1.684;2023-04-07T00:02:20;9.40;75.80
52575;DHT22;38468;48.114;-1.684;2023-04-07T00:04:21;9.30;75.90
52575;DHT22;38468;48.114;-1.684;2023-04-07T00:06:22;9.30;76.10
52575;DHT22;38468;48.114;-1.684;2023-04-07T00:08:22;9.30;76.10
52575;DHT22;38468;48.114;-1.684;2023-04-07T00:10:24;9.30;76.10
52575;DHT22;38468;48.114;-1.684;2023-04-07T00:12:24;9.30;76.10
52575;DHT22;38468;48.114;-1.684;2023-04-07T00:14:25;9.20;76.20
52575;DHT22;38468;48.114;-1.684;2023-04-07T00:16:26;9.20;76.50
52575;DHT22;38468;48.114;-1.684;2023-04-07T00:18:27;9.20;76.60
52575;DHT22;38468;48.114;-1.684;2023-04-07T00:20:27;9.20;76.50
52575;DHT22;38468;48.114;-1.684;2023-04-07T00:22:28;9.20;76.40
52575;DHT22;38468;48.114;-1.684;2023-04-07T00:24:28;9.20;76.60
52575;DHT22;38468;48.114;-1.684;2023-04-07T00:26:29;9.20;76.40
52575;DHT22;38468;48.114;-1.684;2023-04-07T00:28:32;9.20;76.50
52575;DHT22;38468;48.114;-1.684;2023-04-07T00:30:32;9.30;76.40
52575;DHT22;38468;48.114;-1.684;2023-04-07T00:32:33;9.30;76.10
52575;DHT22;38468;48.114;-1.684;2023-04-07T00:34:34;9.20;76.30
52575;DHT22;38468;48.114;-1.684;2023-04-07T00:36:34;9.20;76.40
52575;DHT22;38468;48.114;-1.684;2023-04-07T00:38:35;9.20;76.50
52575;DHT22;38468;48.114;-1.684;2023-04-07T00:40:36;9.10;76.70
52575;DHT22;38468;48.114;-1.684;2023-04-07T00:42:36;9.20;76.60
52575;DHT22;38468;48.114;-1.684;2023-04-07T00:44:37;9.10;76.60
52575;DHT22;38468;48.114;-1.684;2023-04-07T00:46:38;9.10;76.70
52575;DHT22;38468;48.114;-1.684;2023-04-07T00:48:38;9.10;76.80
52575;DHT22;38468;48.114;-1.684;2023-04-07T00:50:39;9.10;76.70
52575;DHT22;38468;48.114;-1.684;2023-04-07T00:52:40;9.00;76.80
52575;DHT22;38468;48.114;-1.684;2023-04-07T00:54:41;9.00;76.90
52575;DHT22;38468;48.114;-1.684;2023-04-07T00:56:43;9.00;77.10
52575;DHT22;38468;48.114;-1.684;2023-04-07T00:58:44;9.00;77.20
52575;DHT22;38468;48.114;-1.684;2023-04-07T01:00:48;9.00;77.20
52575;DHT22;38468;48.114;-1.684;2023-04-07T01:02:57;8.90;77.30
52575;DHT22;38468;48.114;-1.684;2023-04-07T01:05:22;9.00;77.30
52575;DHT22;38468;48.114;-1.684;2023-04-07T01:07:31;9.00;77.00
52575;DHT22;38468;48.114;-1.684;2023-04-07T01:09:39;9.00;76.70
52575;DHT22;38468;48.114;-1.684;2023-04-07T01:13:53;9.00;77.10
52575;DHT22;38468;48.114;-1.684;2023-04-07T01:15:55;9.00;76.90
52575;DHT22;38468;48.114;-1.684;2023-04-07T01:18:12;9.00;76.90
52575;DHT22;38468;48.114;-1.684;2023-04-07T01:20:18;9.00;76.90
52575;DHT22;38468;48.114;-1.684;2023-04-07T01:22:27;8.90;77.30
52575;DHT22;38468;48.114;-1.684;2023-04-07T01:26:50;8.90;77.40
52575;DHT22;38468;48.114;-1.684;2023-04-07T01:31:12;8.80;77.70
52575;DHT22;38468;48.114;-1.684;2023-04-07T01:33:15;8.90;77.70
52575;DHT22;38468;48.114;-1.684;2023-04-07T01:35:17;8.80;77.70
52575;DHT22;38468;48.114;-1.684;2023-04-07T01:37:19;8.70;77.80
52575;DHT22;38468;48.114;-1.684;2023-04-07T01:39:21;8.70;77.90
52575;DHT22;38468;48.114;-1.684;2023-04-07T01:41:23;8.70;77.90
52575;DHT22;38468;48.114;-1.684;2023-04-07T01:43:25;8.70;78.00
52575;DHT22;38468;48.114;-1.684;2023-04-07T01:45:28;8.80;78.10
52575;DHT22;38468;48.114;-1.684;2023-04-07T01:47:30;8.70;78.20
52575;DHT22;38468;48.114;-1.684;2023-04-07T01:49:32;8.70;78.20
52575;DHT22;38468;48.114;-1.684;2023-04-07T01:51:35;8.60;78.20
52575;DHT22;38468;48.114;-1.684;2023-04-07T01:53:37;8.70;78.20
52575;DHT22;38468;48.114;-1.684;2023-04-07T01:55:38;8.60;78.20
52575;DHT22;38468;48.114;-1.684;2023-04-07T01:57:39;8.70;78.10
52575;DHT22;38468;48.114;-1.684;2023-04-07T01:59:40;8.70;78.30
52575;DHT22;38468;48.114;-1.684;2023-04-07T02:01:41;8.70;78.20
52575;DHT22;38468;48.114;-1.684;2023-04-07T02:05:47;8.70;78.20
52575;DHT22;38468;48.114;-1.684;2023-04-07T02:07:58;8.70;78.20
52575;DHT22;38468;48.114;-1.684;2023-04-07T02:10:01;8.70;78.30
52575;DHT22;38468;48.114;-1.684;2023-04-07T02:12:02;8.60;78.40
52575;DHT22;38468;48.114;-1.684;2023-04-07T02:14:06;8.60;78.40
52575;DHT22;38468;48.114;-1.684;2023-04-07T02:16:07;8.60;78.60
52575;DHT22;38468;48.114;-1.684;2023-04-07T02:18:09;8.60;78.50
52575;DHT22;38468;48.114;-1.684;2023-04-07T02:20:11;8.60;78.40
52575;DHT22;38468;48.114;-1.684;2023-04-07T02:22:12;8.50;78.50
52575;DHT22;38468;48.114;-1.684;2023-04-07T02:24:19;8.50;78.70
52575;DHT22;38468;48.114;-1.684;2023-04-07T02:26:20;8.50;78.50
52575;DHT22;38468;48.114;-1.684;2023-04-07T02:28:21;8.60;78.50
52575;DHT22;38468;48.114;-1.684;2023-04-07T02:30:22;8.50;78.20
52575;DHT22;38468;48.114;-1.684;2023-04-07T02:32:27;8.50;78.00
52575;DHT22;38468;48.114;-1.684;2023-04-07T02:34:28;8.50;78.20
52575;DHT22;38468;48.114;-1.684;2023-04-07T02:36:29;8.50;78.30
52575;DHT22;38468;48.114;-1.684;2023-04-07T02:38:31;8.50;78.20
52575;DHT22;38468;48.114;-1.684;2023-04-07T02:40:31;8.50;78.20
52575;DHT22;38468;48.114;-1.684;2023-04-07T02:42:32;8.40;78.20
52575;DHT22;38468;48.114;-1.684;2023-04-07T02:44:33;8.40;78.50
52575;DHT22;38468;48.114;-1.684;2023-04-07T02:46:33;8.40;78.50
52575;DHT22;38468;48.114;-1.684;2023-04-07T02:48:34;8.40;78.60
52575;DHT22;38468;48.114;-1.684;2023-04-07T02:50:35;8.40;78.70
52575;DHT22;38468;48.114;-1.684;2023-04-07T02:52:35;8.40;78.90
52575;DHT22;38468;48.114;-1.684;2023-04-07T02:54:36;8.40;79.00
52575;DHT22;38468;48.114;-1.684;2023-04-07T02:56:37;8.30;79.10
52575;DHT22;38468;48.114;-1.684;2023-04-07T02:58:37;8.30;79.10
52575;DHT22;38468;48.114;-1.684;2023-04-07T03:00:38;8.30;79.10
52575;DHT22;38468;48.114;-1.684;2023-04-07T03:02:39;8.30;79.20
52575;DHT22;38468;48.114;-1.684;2023-04-07T03:04:39;8.30;79.30
52575;DHT22;38468;48.114;-1.684;2023-04-07T03:06:41;8.30;79.30
52575;DHT22;38468;48.114;-1.684;2023-04-07T03:08:41;8.30;79.30
52575;DHT22;38468;48.114;-1.684;2023-04-07T03:10:42;8.30;79.20
52575;DHT22;38468;48.114;-1.684;2023-04-07T03:12:43;8.30;79.20
52575;DHT22;38468;48.114;-1.684;2023-04-07T03:14:43;8.30;79.20
52575;DHT22;38468;48.114;-1.684;2023-04-07T03:16:44;8.20;79.40
52575;DHT22;38468;48.114;-1.684;2023-04-07T03:18:45;8.20;79.30
52575;DHT22;38468;48.114;-1.684;2023-04-07T03:20:47;8.20;79.30
52575;DHT22;38468;48.114;-1.684;2023-04-07T03:22:48;8.20;79.10
52575;DHT22;38468;48.114;-1.684;2023-04-07T03:24:48;8.10;79.00
52575;DHT22;38468;48.114;-1.684;2023-04-07T03:26:49;8.10;79.20
52575;DHT22;38468;48.114;-1.684;2023-04-07T03:28:50;8.00;79.10
52575;DHT22;38468;48.114;-1.684;2023-04-07T03:30:51;8.00;79.10
52575;DHT22;38468;48.114;-1.684;2023-04-07T03:32:52;7.90;79.20
52575;DHT22;38468;48.114;-1.684;2023-04-07T03:34:52;7.90;79.40
52575;DHT22;38468;48.114;-1.684;2023-04-07T03:36:53;7.90;79.40
52575;DHT22;38468;48.114;-1.684;2023-04-07T03:38:54;7.90;79.60
52575;DHT22;38468;48.114;-1.684;2023-04-07T03:40:55;7.90;79.40
52575;DHT22;38468;48.114;-1.684;2023-04-07T03:42:55;7.90;79.50
52575;DHT22;38468;48.114;-1.684;2023-04-07T03:44:56;7.90;79.40
52575;DHT22;38468;48.114;-1.684;2023-04-07T03:46:57;7.90;79.40
52575;DHT22;38468;48.114;-1.684;2023-04-07T03:48:57;7.90;79.40
52575;DHT22;38468;48.114;-1.684;2023-04-07T03:50:58;7.90;79.60
52575;DHT22;38468;48.114;-1.684;2023-04-07T03:52:59;7.90;79.50
52575;DHT22;38468;48.114;-1.684;2023-04-07T03:54:59;7.90;79.40
52575;DHT22;38468;48.114;-1.684;2023-04-07T03:57:00;7.90;79.50
52575;DHT22;38468;48.114;-1.684;2023-04-07T03:59:02;7.90;79.50
52575;DHT22;38468;48.114;-1.684;2023-04-07T04:01:02;7.90;79.30
52575;DHT22;38468;48.114;-1.684;2023-04-07T04:03:03;7.90;79.20
52575;DHT22;38468;48.114;-1.684;2023-04-07T04:05:05;7.80;79.30
52575;DHT22;38468;48.114;-1.684;2023-04-07T04:07:05;7.80;79.30
52575;DHT22;38468;48.114;-1.684;2023-04-07T04:09:06;7.80;79.30
52575;DHT22;38468;48.114;-1.684;2023-04-07T04:11:07;7.80;79.30
52575;DHT22;38468;48.114;-1.684;2023-04-07T04:13:07;7.80;79.40
52575;DHT22;38468;48.114;-1.684;2023-04-07T04:15:09;7.70;79.40
52575;DHT22;38468;48.114;-1.684;2023-04-07T04:17:13;7.80;79.40
52575;DHT22;38468;48.114;-1.684;2023-04-07T04:19:13;7.80;79.50
52575;DHT22;38468;48.114;-1.684;2023-04-07T04:21:14;7.70;79.60
52575;DHT22;38468;48.114;-1.684;2023-04-07T04:23:15;7.70;79.70
52575;DHT22;38468;48.114;-1.684;2023-04-07T04:25:16;7.70;79.80
52575;DHT22;38468;48.114;-1.684;2023-04-07T04:27:17;7.70;79.80
52575;DHT22;38468;48.114;-1.684;2023-04-07T04:29:17;7.70;79.70
52575;DHT22;38468;48.114;-1.684;2023-04-07T04:31:18;7.70;79.80
52575;DHT22;38468;48.114;-1.684;2023-04-07T04:33:21;7.70;79.60
52575;DHT22;38468;48.114;-1.684;2023-04-07T04:35:22;7.70;79.70
52575;DHT22;38468;48.114;-1.684;2023-04-07T04:37:23;7.70;79.60
52575;DHT22;38468;48.114;-1.684;2023-04-07T04:39:23;7.70;79.70
52575;DHT22;38468;48.114;-1.684;2023-04-07T04:41:24;7.60;79.70
52575;DHT22;38468;48.114;-1.684;2023-04-07T04:43:24;7.60;79.80
52575;DHT22;38468;48.114;-1.684;2023-04-07T04:45:25;7.60;79.70
52575;DHT22;38468;48.114;-1.684;2023-04-07T04:47:26;7.60;79.70
52575;DHT22;38468;48.114;-1.684;2023-04-07T04:49:26;7.50;79.80
52575;DHT22;38468;48.114;-1.684;2023-04-07T04:51:27;7.60;79.70
52575;DHT22;38468;48.114;-1.684;2023-04-07T04:53:28;7.60;79.60
52575;DHT22;38468;48.114;-1.684;2023-04-07T04:55:28;7.60;79.60
52575;DHT22;38468;48.114;-1.684;2023-04-07T04:57:29;7.50;79.60
52575;DHT22;38468;48.114;-1.684;2023-04-07T04:59:29;7.60;79.70
52575;DHT22;38468;48.114;-1.684;2023-04-07T05:01:30;7.50;79.60
52575;DHT22;38468;48.114;-1.684;2023-04-07T05:03:31;7.50;79.50
52575;DHT22;38468;48.114;-1.684;2023-04-07T05:05:32;7.50;79.70
52575;DHT22;38468;48.114;-1.684;2023-04-07T05:07:32;7.50;79.80
52575;DHT22;38468;48.114;-1.684;2023-04-07T05:09:33;7.40;79.90
52575;DHT22;38468;48.114;-1.684;2023-04-07T05:11:34;7.40;80.00
52575;DHT22;38468;48.114;-1.684;2023-04-07T05:13:34;7.50;79.90
52575;DHT22;38468;48.114;-1.684;2023-04-07T05:15:35;7.40;79.90
52575;DHT22;38468;48.114;-1.684;2023-04-07T05:17:36;7.40;79.90
52575;DHT22;38468;48.114;-1.684;2023-04-07T05:19:37;7.40;80.00
52575;DHT22;38468;48.114;-1.684;2023-04-07T05:21:37;7.40;79.90
52575;DHT22;38468;48.114;-1.684;2023-04-07T05:23:38;7.40;79.80
52575;DHT22;38468;48.114;-1.684;2023-04-07T05:25:39;7.40;79.70
52575;DHT22;38468;48.114;-1.684;2023-04-07T05:27:39;7.40;79.70
52575;DHT22;38468;48.114;-1.684;2023-04-07T05:29:40;7.30;79.50
52575;DHT22;38468;48.114;-1.684;2023-04-07T05:31:41;7.30;79.20
52575;DHT22;38468;48.114;-1.684;2023-04-07T05:33:41;7.20;79.00
52575;DHT22;38468;48.114;-1.684;2023-04-07T05:35:45;7.20;79.00
52575;DHT22;38468;48.114;-1.684;2023-04-07T05:37:46;7.20;78.90
52575;DHT22;38468;48.114;-1.684;2023-04-07T05:39:46;7.20;78.90
52575;DHT22;38468;48.114;-1.684;2023-04-07T05:41:47;7.10;78.90
52575;DHT22;38468;48.114;-1.684;2023-04-07T05:43:48;7.10;78.80
52575;DHT22;38468;48.114;-1.684;2023-04-07T05:45:48;7.10;78.70
52575;DHT22;38468;48.114;-1.684;2023-04-07T05:47:49;7.00;78.60
52575;DHT22;38468;48.114;-1.684;2023-04-07T05:49:50;7.00;78.70
52575;DHT22;38468;48.114;-1.684;2023-04-07T05:51:50;7.00;78.70
52575;DHT22;38468;48.114;-1.684;2023-04-07T05:53:51;7.00;78.90
52575;DHT22;38468;48.114;-1.684;2023-04-07T05:55:52;7.00;79.10
52575;DHT22;38468;48.114;-1.684;2023-04-07T05:57:52;6.90;79.00
52575;DHT22;38468;48.114;-1.684;2023-04-07T05:59:54;7.00;79.00
52575;DHT22;38468;48.114;-1.684;2023-04-07T06:01:54;7.00;78.80
52575;DHT22;38468;48.114;-1.684;2023-04-07T06:03:55;7.00;78.50
52575;DHT22;38468;48.114;-1.684;2023-04-07T06:05:58;7.00;78.40
52575;DHT22;38468;48.114;-1.684;2023-04-07T06:07:58;7.00;78.50
52575;DHT22;38468;48.114;-1.684;2023-04-07T06:09:59;6.90;78.60
52575;DHT22;38468;48.114;-1.684;2023-04-07T06:12:00;6.90;78.60
52575;DHT22;38468;48.114;-1.684;2023-04-07T06:14:04;6.90;78.60
52575;DHT22;38468;48.114;-1.684;2023-04-07T06:16:05;6.80;78.60
52575;DHT22;38468;48.114;-1.684;2023-04-07T06:18:05;6.80;78.60
52575;DHT22;38468;48.114;-1.684;2023-04-07T06:20:07;6.80;78.60
52575;DHT22;38468;48.114;-1.684;2023-04-07T06:22:07;6.80;78.80
52575;DHT22;38468;48.114;-1.684;2023-04-07T06:24:08;6.90;78.80
52575;DHT22;38468;48.114;-1.684;2023-04-07T06:26:12;6.90;78.80
52575;DHT22;38468;48.114;-1.684;2023-04-07T06:28:12;6.90;78.80
52575;DHT22;38468;48.114;-1.684;2023-04-07T06:30:13;6.90;78.80
52575;DHT22;38468;48.114;-1.684;2023-04-07T06:32:14;6.90;78.80
52575;DHT22;38468;48.114;-1.684;2023-04-07T06:34:18;6.90;78.90
52575;DHT22;38468;48.114;-1.684;2023-04-07T06:36:19;6.90;79.00
52575;DHT22;38468;48.114;-1.684;2023-04-07T06:38:21;7.00;79.20
52575;DHT22;38468;48.114;-1.684;2023-04-07T06:40:21;7.00;79.10
52575;DHT22;38468;48.114;-1.684;2023-04-07T06:42:22;7.10;79.10
52575;DHT22;38468;48.114;-1.684;2023-04-07T06:44:23;7.10;79.10
52575;DHT22;38468;48.114;-1.684;2023-04-07T06:46:23;7.20;79.10
52575;DHT22;38468;48.114;-1.684;2023-04-07T06:48:26;7.40;79.80
52575;DHT22;38468;48.114;-1.684;2023-04-07T06:50:27;7.60;80.00
52575;DHT22;38468;48.114;-1.684;2023-04-07T06:52:27;7.60;79.30
52575;DHT22;38468;48.114;-1.684;2023-04-07T06:54:28;7.70;78.90
52575;DHT22;38468;48.114;-1.684;2023-04-07T06:56:29;7.70;78.60
52575;DHT22;38468;48.114;-1.684;2023-04-07T06:58:29;7.70;78.60
52575;DHT22;38468;48.114;-1.684;2023-04-07T07:00:30;7.90;78.40
52575;DHT22;38468;48.114;-1.684;2023-04-07T07:02:31;8.00;78.00
52575;DHT22;38468;48.114;-1.684;2023-04-07T07:04:33;8.20;77.70
52575;DHT22;38468;48.114;-1.684;2023-04-07T07:06:34;8.30;77.40
52575;DHT22;38468;48.114;-1.684;2023-04-07T07:08:35;8.30;77.10
52575;DHT22;38468;48.114;-1.684;2023-04-07T07:10:36;8.20;77.20
52575;DHT22;38468;48.114;-1.684;2023-04-07T07:12:36;8.30;77.30
52575;DHT22;38468;48.114;-1.684;2023-04-07T07:14:37;8.30;77.30
52575;DHT22;38468;48.114;-1.684;2023-04-07T07:16:38;8.40;77.10
52575;DHT22;38468;48.114;-1.684;2023-04-07T07:18:38;8.40;77.20
52575;DHT22;38468;48.114;-1.684;2023-04-07T07:20:39;8.40;77.00
52575;DHT22;38468;48.114;-1.684;2023-04-07T07:22:40;8.40;77.00
52575;DHT22;38468;48.114;-1.684;2023-04-07T07:24:40;8.50;76.90
52575;DHT22;38468;48.114;-1.684;2023-04-07T07:26:41;8.60;77.00
52575;DHT22;38468;48.114;-1.684;2023-04-07T07:28:42;8.70;76.90
52575;DHT22;38468;48.114;-1.684;2023-04-07T07:30:43;8.90;76.70
52575;DHT22;38468;48.114;-1.684;2023-04-07T07:32:43;9.00;76.60
52575;DHT22;38468;48.114;-1.684;2023-04-07T07:34:44;9.00;76.20
52575;DHT22;38468;48.114;-1.684;2023-04-07T07:36:45;9.30;76.40
52575;DHT22;38468;48.114;-1.684;2023-04-07T07:38:45;9.40;76.10
52575;DHT22;38468;48.114;-1.684;2023-04-07T07:40:46;9.50;76.10
52575;DHT22;38468;48.114;-1.684;2023-04-07T07:42:47;9.50;75.80
52575;DHT22;38468;48.114;-1.684;2023-04-07T07:44:47;9.50;75.70
52575;DHT22;38468;48.114;-1.684;2023-04-07T07:46:49;9.60;75.70
52575;DHT22;38468;48.114;-1.684;2023-04-07T07:48:50;9.60;75.50
52575;DHT22;38468;48.114;-1.684;2023-04-07T07:50:51;9.60;75.50
52575;DHT22;38468;48.114;-1.684;2023-04-07T07:52:51;9.70;75.70
52575;DHT22;38468;48.114;-1.684;2023-04-07T07:54:52;9.90;76.10
52575;DHT22;38468;48.114;-1.684;2023-04-07T07:56:53;10.10;76.20
52575;DHT22;38468;48.114;-1.684;2023-04-07T07:58:53;10.20;75.40
52575;DHT22;38468;48.114;-1.684;2023-04-07T08:00:54;10.40;75.60
52575;DHT22;38468;48.114;-1.684;2023-04-07T08:02:55;10.70;75.10
52575;DHT22;38468;48.114;-1.684;2023-04-07T08:04:56;11.00;74.90
52575;DHT22;38468;48.114;-1.684;2023-04-07T08:06:57;11.40;74.00
52575;DHT22;38468;48.114;-1.684;2023-04-07T08:08:58;11.90;74.20
52575;DHT22;38468;48.114;-1.684;2023-04-07T08:10:58;12.40;72.90
52575;DHT22;38468;48.114;-1.684;2023-04-07T08:12:59;13.00;73.40
52575;DHT22;38468;48.114;-1.684;2023-04-07T08:15:00;13.70;71.90
52575;DHT22;38468;48.114;-1.684;2023-04-07T08:17:00;14.40;71.40
52575;DHT22;38468;48.114;-1.684;2023-04-07T08:19:01;15.00;69.40
52575;DHT22;38468;48.114;-1.684;2023-04-07T08:21:04;15.50;67.10
52575;DHT22;38468;48.114;-1.684;2023-04-07T08:23:05;15.70;61.90
52575;DHT22;38468;48.114;-1.684;2023-04-07T08:25:06;15.90;62.30
52575;DHT22;38468;48.114;-1.684;2023-04-07T08:27:06;16.10;61.00
52575;DHT22;38468;48.114;-1.684;2023-04-07T08:29:07;16.50;60.70
52575;DHT22;38468;48.114;-1.684;2023-04-07T08:31:07;16.70;58.40
52575;DHT22;38468;48.114;-1.684;2023-04-07T08:33:08;17.00;58.60
52575;DHT22;38468;48.114;-1.684;2023-04-07T08:35:09;17.50;59.30
52575;DHT22;38468;48.114;-1.684;2023-04-07T08:37:10;18.00;58.10
52575;DHT22;38468;48.114;-1.684;2023-04-07T08:39:11;18.60;59.10
52575;DHT22;38468;48.114;-1.684;2023-04-07T08:41:20;18.90;55.40
52575;DHT22;38468;48.114;-1.684;2023-04-07T08:43:25;19.40;56.20
52575;DHT22;38468;48.114;-1.684;2023-04-07T08:45:26;19.50;54.10
52575;DHT22;38468;48.114;-1.684;2023-04-07T08:47:31;19.20;53.00
52575;DHT22;38468;48.114;-1.684;2023-04-07T08:49:34;19.50;52.00
52575;DHT22;38468;48.114;-1.684;2023-04-07T08:51:37;20.00;55.30
52575;DHT22;38468;48.114;-1.684;2023-04-07T08:53:47;19.90;49.20
52575;DHT22;38468;48.114;-1.684;2023-04-07T08:55:51;19.50;50.40
52575;DHT22;38468;48.114;-1.684;2023-04-07T08:57:52;19.20;51.00
52575;DHT22;38468;48.114;-1.684;2023-04-07T08:59:53;19.80;52.40
52575;DHT22;38468;48.114;-1.684;2023-04-07T09:01:54;20.30;51.50
52575;DHT22;38468;48.114;-1.684;2023-04-07T09:03:56;20.20;49.10
52575;DHT22;38468;48.114;-1.684;2023-04-07T09:05:59;20.20;50.20
52575;DHT22;38468;48.114;-1.684;2023-04-07T09:08:00;20.40;46.90
52575;DHT22;38468;48.114;-1.684;2023-04-07T09:10:02;20.50;45.30
52575;DHT22;38468;48.114;-1.684;2023-04-07T09:12:03;20.30;49.50
52575;DHT22;38468;48.114;-1.684;2023-04-07T09:14:03;20.80;48.30
52575;DHT22;38468;48.114;-1.684;2023-04-07T09:16:04;21.30;48.70
52575;DHT22;38468;48.114;-1.684;2023-04-07T09:18:09;21.30;43.40
52575;DHT22;38468;48.114;-1.684;2023-04-07T09:20:09;21.40;47.20
52575;DHT22;38468;48.114;-1.684;2023-04-07T09:22:10;21.50;46.60
52575;DHT22;38468;48.114;-1.684;2023-04-07T09:24:27;21.50;44.70
52575;DHT22;38468;48.114;-1.684;2023-04-07T09:26:28;21.50;44.50
52575;DHT22;38468;48.114;-1.684;2023-04-07T09:28:40;21.70;45.10
52575;DHT22;38468;48.114;-1.684;2023-04-07T09:30:51;21.80;44.00
52575;DHT22;38468;48.114;-1.684;2023-04-07T09:32:53;21.80;43.10
52575;DHT22;38468;48.114;-1.684;2023-04-07T09:34:58;22.00;43.80
52575;DHT22;38468;48.114;-1.684;2023-04-07T09:37:00;22.00;44.00
52575;DHT22;38468;48.114;-1.684;2023-04-07T09:39:07;22.10;44.50
52575;DHT22;38468;48.114;-1.684;2023-04-07T09:41:08;22.00;42.60
52575;DHT22;38468;48.114;-1.684;2023-04-07T09:43:15;21.80;43.50
52575;DHT22;38468;48.114;-1.684;2023-04-07T09:45:24;21.50;42.60
52575;DHT22;38468;48.114;-1.684;2023-04-07T09:47:30;21.50;42.20
52575;DHT22;38468;48.114;-1.684;2023-04-07T09:49:31;21.00;43.10
52575;DHT22;38468;48.114;-1.684;2023-04-07T09:51:33;20.80;43.60
52575;DHT22;38468;48.114;-1.684;2023-04-07T09:53:48;20.20;43.00
52575;DHT22;38468;48.114;-1.684;2023-04-07T09:55:49;20.00;43.70
52575;DHT22;38468;48.114;-1.684;2023-04-07T09:57:50;19.80;43.70
52575;DHT22;38468;48.114;-1.684;2023-04-07T09:59:51;19.70;43.60
52575;DHT22;38468;48.114;-1.684;2023-04-07T10:01:54;19.20;44.40
52575;DHT22;38468;48.114;-1.684;2023-04-07T10:03:55;19.20;44.10
52575;DHT22;38468;48.114;-1.684;2023-04-07T10:05:56;19.10;44.80
52575;DHT22;38468;48.114;-1.684;2023-04-07T10:07:57;18.80;45.80
52575;DHT22;38468;48.114;-1.684;2023-04-07T10:09:57;18.60;45.90
52575;DHT22;38468;48.114;-1.684;2023-04-07T10:11:58;18.40;45.70
52575;DHT22;38468;48.114;-1.684;2023-04-07T10:13:59;18.30;47.20
52575;DHT22;38468;48.114;-1.684;2023-04-07T10:16:03;18.10;47.50
52575;DHT22;38468;48.114;-1.684;2023-04-07T10:18:06;17.80;46.20
52575;DHT22;38468;48.114;-1.684;2023-04-07T10:20:09;17.60;46.80
52575;DHT22;38468;48.114;-1.684;2023-04-07T10:22:10;17.50;47.80
52575;DHT22;38468;48.114;-1.684;2023-04-07T10:24:32;17.50;48.20
52575;DHT22;38468;48.114;-1.684;2023-04-07T10:26:37;17.50;49.40
52575;DHT22;38468;48.114;-1.684;2023-04-07T10:28:40;17.50;48.60
52575;DHT22;38468;48.114;-1.684;2023-04-07T10:30:43;17.50;49.40
52575;DHT22;38468;48.114;-1.684;2023-04-07T10:32:49;17.50;49.40
52575;DHT22;38468;48.114;-1.684;2023-04-07T10:37:12;17.40;50.10
52575;DHT22;38468;48.114;-1.684;2023-04-07T10:41:39;17.20;49.70
52575;DHT22;38468;48.114;-1.684;2023-04-07T10:43:40;17.20;50.40
52575;DHT22;38468;48.114;-1.684;2023-04-07T10:50:21;17.00;49.30
52575;DHT22;38468;48.114;-1.684;2023-04-07T10:52:23;17.00;48.70
52575;DHT22;38468;48.114;-1.684;2023-04-07T10:54:24;16.90;48.90
52575;DHT22;38468;48.114;-1.684;2023-04-07T10:57:06;17.00;48.70
52575;DHT22;38468;48.114;-1.684;2023-04-07T10:59:13;16.90;47.60
52575;DHT22;38468;48.114;-1.684;2023-04-07T11:01:16;16.60;48.10
52575;DHT22;38468;48.114;-1.684;2023-04-07T11:03:18;16.50;48.40
52575;DHT22;38468;48.114;-1.684;2023-04-07T11:05:20;16.50;48.20
52575;DHT22;38468;48.114;-1.684;2023-04-07T11:07:42;16.60;48.80
52575;DHT22;38468;48.114;-1.684;2023-04-07T11:09:43;16.60;48.00
52575;DHT22;38468;48.114;-1.684;2023-04-07T11:11:44;16.50;47.10
52575;DHT22;38468;48.114;-1.684;2023-04-07T11:13:47;16.40;47.80
52575;DHT22;38468;48.114;-1.684;2023-04-07T11:15:49;16.40;47.30
52575;DHT22;38468;48.114;-1.684;2023-04-07T11:18:11;16.30;47.50
52575;DHT22;38468;48.114;-1.684;2023-04-07T11:20:12;16.30;47.40
52575;DHT22;38468;48.114;-1.684;2023-04-07T11:22:14;16.10;47.50
52575;DHT22;38468;48.114;-1.684;2023-04-07T11:24:34;16.00;47.50
52575;DHT22;38468;48.114;-1.684;2023-04-07T11:26:38;16.00;46.90
52575;DHT22;38468;48.114;-1.684;2023-04-07T11:28:49;15.90;46.20
52575;DHT22;38468;48.114;-1.684;2023-04-07T11:30:54;15.90;46.40
52575;DHT22;38468;48.114;-1.684;2023-04-07T11:32:56;15.50;45.90
52575;DHT22;38468;48.114;-1.684;2023-04-07T11:34:57;15.50;47.50
52575;DHT22;38468;48.114;-1.684;2023-04-07T11:37:21;15.70;47.40
52575;DHT22;38468;48.114;-1.684;2023-04-07T11:39:21;15.90;46.60
52575;DHT22;38468;48.114;-1.684;2023-04-07T11:41:23;16.00;47.00
52575;DHT22;38468;48.114;-1.684;2023-04-07T11:43:26;16.00;46.90
52575;DHT22;38468;48.114;-1.684;2023-04-07T11:45:27;16.10;47.30
52575;DHT22;38468;48.114;-1.684;2023-04-07T11:47:39;16.10;47.10
52575;DHT22;38468;48.114;-1.684;2023-04-07T11:49:44;16.20;47.10
52575;DHT22;38468;48.114;-1.684;2023-04-07T11:51:45;16.20;47.00
52575;DHT22;38468;48.114;-1.684;2023-04-07T11:53:46;16.20;46.80
52575;DHT22;38468;48.114;-1.684;2023-04-07T11:55:47;16.20;46.90
52575;DHT22;38468;48.114;-1.684;2023-04-07T11:57:48;16.20;46.50
52575;DHT22;38468;48.114;-1.684;2023-04-07T11:59:50;16.10;46.90
52575;DHT22;38468;48.114;-1.684;2023-04-07T12:02:04;16.00;46.90
52575;DHT22;38468;48.114;-1.684;2023-04-07T12:04:06;15.90;47.20
52575;DHT22;38468;48.114;-1.684;2023-04-07T12:06:11;15.80;47.10
52575;DHT22;38468;48.114;-1.684;2023-04-07T12:08:15;15.70;47.40
52575;DHT22;38468;48.114;-1.684;2023-04-07T12:10:22;15.70;47.60
52575;DHT22;38468;48.114;-1.684;2023-04-07T12:12:29;15.80;47.60
52575;DHT22;38468;48.114;-1.684;2023-04-07T12:14:29;15.90;47.70
52575;DHT22;38468;48.114;-1.684;2023-04-07T12:16:30;15.80;47.10
52575;DHT22;38468;48.114;-1.684;2023-04-07T12:18:31;15.90;46.80
52575;DHT22;38468;48.114;-1.684;2023-04-07T12:20:32;15.90;47.30
52575;DHT22;38468;48.114;-1.684;2023-04-07T12:22:33;15.90;46.90
52575;DHT22;38468;48.114;-1.684;2023-04-07T12:24:33;15.80;46.80
52575;DHT22;38468;48.114;-1.684;2023-04-07T12:26:34;15.80;46.70
52575;DHT22;38468;48.114;-1.684;2023-04-07T12:28:35;15.70;47.10
52575;DHT22;38468;48.114;-1.684;2023-04-07T12:30:37;15.70;46.90
52575;DHT22;38468;48.114;-1.684;2023-04-07T12:32:38;15.80;47.50
52575;DHT22;38468;48.114;-1.684;2023-04-07T12:34:38;15.80;46.30
52575;DHT22;38468;48.114;-1.684;2023-04-07T12:36:39;15.70;45.60
52575;DHT22;38468;48.114;-1.684;2023-04-07T12:38:40;15.70;44.90
52575;DHT22;38468;48.114;-1.684;2023-04-07T12:40:41;15.70;45.40
52575;DHT22;38468;48.114;-1.684;2023-04-07T12:42:42;15.80;46.00
52575;DHT22;38468;48.114;-1.684;2023-04-07T12:44:43;16.00;47.80
52575;DHT22;38468;48.114;-1.684;2023-04-07T12:46:43;16.00;45.90
52575;DHT22;38468;48.114;-1.684;2023-04-07T12:48:45;16.10;45.30
52575;DHT22;38468;48.114;-1.684;2023-04-07T12:50:47;16.20;46.00
52575;DHT22;38468;48.114;-1.684;2023-04-07T12:52:47;16.30;45.70
52575;DHT22;38468;48.114;-1.684;2023-04-07T12:54:48;16.40;44.70
52575;DHT22;38468;48.114;-1.684;2023-04-07T12:56:49;16.30;45.20
52575;DHT22;38468;48.114;-1.684;2023-04-07T12:58:50;16.20;45.30
52575;DHT22;38468;48.114;-1.684;2023-04-07T13:00:51;16.20;44.80
52575;DHT22;38468;48.114;-1.684;2023-04-07T13:02:52;16.10;45.50
52575;DHT22;38468;48.114;-1.684;2023-04-07T13:04:53;16.20;45.30